RJTA(METAR)
10/21 04:00
METAR RJTA 201900Z 36010KT 9999 SCT030 13/10 Q1025 RMK 3CU030 A3030=
戻る
トップページへ戻る
IMOC Co,.Ltd.